WMT7X LUKK-LFOB
Flight info
| Callsign | WMT7X |
|---|---|
| Flight time | N/A |
| Altitude | 34000 |
| Route | NUNTA DCT PASKA DCT REPTO DCT PITOK DCT OKG DCT ABERU L984 KOMIB DCT LOHRE DCT BETEX DCT IDOSA DCT TOLVU/N0428F350 DCT RAPOR DCT VEDUS |
| Aircraft | A320/M-SDE3FGHIRWY/LB1 |
Departure
| Time | 2026-05-05 15:59 |
|---|---|
| Airport | Chişinău International Airport (LUKK) |
Arrival
| Time | N/A |
|---|---|
| Airport | Beauvais-Tillé airport (LFOB) |
| Time | Latitude | Longitude | Altitude | Speed | Heading |
|---|---|---|---|---|---|
| 2026-05-05 15:16 | 46.93240 | 28.93535 | 409 ft | 0 kts | 276° |
| 2026-05-05 15:44 | 46.93239 | 28.93535 | 408 ft | 0 kts | 276° |
| 2026-05-05 15:49 | 46.93240 | 28.93526 | 408 ft | 4 kts | 276° |
| 2026-05-05 15:50 | 46.93234 | 28.93476 | 408 ft | 5 kts | 227° |
| 2026-05-05 15:50 | 46.93201 | 28.93452 | 409 ft | 5 kts | 194° |
| 2026-05-05 15:50 | 46.93171 | 28.93439 | 410 ft | 4 kts | 213° |
| 2026-05-05 15:50 | 46.93159 | 28.93400 | 411 ft | 9 kts | 258° |
| 2026-05-05 15:51 | 46.93165 | 28.93274 | 410 ft | 14 kts | 277° |
| 2026-05-05 15:51 | 46.93177 | 28.93124 | 410 ft | 16 kts | 277° |
| 2026-05-05 15:51 | 46.93192 | 28.92954 | 409 ft | 18 kts | 277° |
| 2026-05-05 15:51 | 46.93214 | 28.92690 | 405 ft | 20 kts | 277° |
| 2026-05-05 15:52 | 46.93225 | 28.92558 | 406 ft | 20 kts | 277° |
| 2026-05-05 15:52 | 46.93249 | 28.92275 | 407 ft | 21 kts | 277° |
| 2026-05-05 15:52 | 46.93259 | 28.92151 | 407 ft | 15 kts | 276° |
| 2026-05-05 15:52 | 46.93237 | 28.92047 | 407 ft | 11 kts | 219° |
| 2026-05-05 15:53 | 46.93165 | 28.92008 | 408 ft | 11 kts | 194° |
| 2026-05-05 15:53 | 46.93080 | 28.91987 | 405 ft | 13 kts | 181° |
| 2026-05-05 15:53 | 46.92980 | 28.91991 | 408 ft | 15 kts | 178° |
| 2026-05-05 15:53 | 46.92894 | 28.91995 | 408 ft | 8 kts | 178° |
| 2026-05-05 15:54 | 46.92889 | 28.91996 | 408 ft | 0 kts | 178° |
| 2026-05-05 15:54 | 46.92888 | 28.91996 | 408 ft | 1 kts | 178° |
| 2026-05-05 15:54 | 46.92858 | 28.91997 | 408 ft | 7 kts | 178° |
| 2026-05-05 15:54 | 46.92804 | 28.92000 | 409 ft | 8 kts | 178° |
| 2026-05-05 15:55 | 46.92760 | 28.91942 | 409 ft | 11 kts | 251° |
| 2026-05-05 15:55 | 46.92754 | 28.91850 | 407 ft | 13 kts | 268° |
| 2026-05-05 15:55 | 46.92753 | 28.91775 | 407 ft | 14 kts | 268° |
| 2026-05-05 15:55 | 46.92749 | 28.91620 | 407 ft | 16 kts | 268° |
| 2026-05-05 15:56 | 46.92746 | 28.91454 | 408 ft | 17 kts | 268° |
| 2026-05-05 15:56 | 46.92742 | 28.91266 | 407 ft | 20 kts | 268° |
| 2026-05-05 15:56 | 46.92738 | 28.91066 | 409 ft | 19 kts | 269° |
| 2026-05-05 15:56 | 46.92736 | 28.90927 | 405 ft | 10 kts | 269° |
| 2026-05-05 15:57 | 46.92761 | 28.90832 | 406 ft | 11 kts | 303° |
| 2026-05-05 15:57 | 46.92742 | 28.90771 | 408 ft | 5 kts | 153° |
| 2026-05-05 15:57 | 46.92733 | 28.90825 | 407 ft | 6 kts | 90° |
| 2026-05-05 15:57 | 46.92734 | 28.90843 | 404 ft | 0 kts | 88° |
| 2026-05-05 15:58 | 46.92735 | 28.90903 | 403 ft | 29 kts | 88° |
| 2026-05-05 15:58 | 46.92747 | 28.91545 | 408 ft | 94 kts | 88° |
| 2026-05-05 15:59 | 46.92772 | 28.92761 | 408 ft | 142 kts | 88° |
| 2026-05-05 15:59 | 46.92805 | 28.94406 | 453 ft | 177 kts | 89° |
| 2026-05-05 15:59 | 46.92841 | 28.96175 | 1128 ft | 172 kts | 89° |
| 2026-05-05 15:59 | 46.92866 | 28.97927 | 1724 ft | 176 kts | 91° |
| 2026-05-05 16:00 | 46.92891 | 28.99820 | 1983 ft | 197 kts | 90° |
| 2026-05-05 16:00 | 46.92957 | 29.01943 | 2202 ft | 222 kts | 82° |
| 2026-05-05 16:00 | 46.93641 | 29.04088 | 2497 ft | 250 kts | 47° |
| 2026-05-05 16:00 | 46.95183 | 29.05348 | 2990 ft | 269 kts | 9° |
| 2026-05-05 16:01 | 46.97017 | 29.05036 | 3819 ft | 269 kts | 334° |
| 2026-05-05 16:01 | 46.98445 | 29.03289 | 4669 ft | 271 kts | 306° |
| 2026-05-05 16:01 | 46.99417 | 29.00925 | 5555 ft | 273 kts | 297° |
| 2026-05-05 16:01 | 47.00206 | 28.98383 | 6407 ft | 276 kts | 295° |
| 2026-05-05 16:02 | 47.00963 | 28.95775 | 7182 ft | 280 kts | 296° |
| 2026-05-05 16:02 | 47.01745 | 28.93151 | 7974 ft | 282 kts | 297° |
| 2026-05-05 16:02 | 47.02571 | 28.90528 | 8768 ft | 285 kts | 299° |
| 2026-05-05 16:02 | 47.03440 | 28.87906 | 9561 ft | 287 kts | 300° |
| 2026-05-05 16:03 | 47.04337 | 28.85279 | 10262 ft | 292 kts | 300° |
| 2026-05-05 16:03 | 47.05295 | 28.82527 | 10466 ft | 314 kts | 301° |
| 2026-05-05 16:03 | 47.06329 | 28.79588 | 10734 ft | 331 kts | 301° |
| 2026-05-05 16:03 | 47.07395 | 28.76555 | 11294 ft | 337 kts | 300° |
| 2026-05-05 16:04 | 47.08474 | 28.73468 | 11909 ft | 342 kts | 300° |
| 2026-05-05 16:04 | 47.09567 | 28.70342 | 12527 ft | 346 kts | 301° |
| 2026-05-05 16:04 | 47.10624 | 28.67145 | 13158 ft | 352 kts | 295° |
| 2026-05-05 16:04 | 47.11280 | 28.63643 | 13778 ft | 361 kts | 282° |
| 2026-05-05 16:05 | 47.11417 | 28.59928 | 14301 ft | 368 kts | 271° |
| 2026-05-05 16:05 | 47.11366 | 28.56155 | 14861 ft | 371 kts | 271° |
| 2026-05-05 16:05 | 47.11319 | 28.52349 | 15402 ft | 374 kts | 272° |
| 2026-05-05 16:05 | 47.11275 | 28.48513 | 15952 ft | 377 kts | 272° |
| 2026-05-05 16:06 | 47.11230 | 28.44644 | 16499 ft | 380 kts | 271° |
| 2026-05-05 16:06 | 47.11185 | 28.40747 | 17052 ft | 383 kts | 271° |
| 2026-05-05 16:06 | 47.11143 | 28.36818 | 17599 ft | 387 kts | 271° |
| 2026-05-05 16:06 | 47.11098 | 28.32852 | 18140 ft | 390 kts | 271° |
| 2026-05-05 16:07 | 47.11048 | 28.28853 | 18631 ft | 393 kts | 271° |
| 2026-05-05 16:07 | 47.10994 | 28.24829 | 19136 ft | 395 kts | 271° |
| 2026-05-05 16:07 | 47.10940 | 28.20787 | 19657 ft | 397 kts | 271° |
| 2026-05-05 16:07 | 47.10884 | 28.16717 | 20164 ft | 400 kts | 271° |
| 2026-05-05 16:08 | 47.10825 | 28.12627 | 20661 ft | 402 kts | 271° |
| 2026-05-05 16:08 | 47.10951 | 28.08532 | 21107 ft | 401 kts | 283° |
| 2026-05-05 16:08 | 47.11638 | 28.04571 | 21541 ft | 402 kts | 288° |
| 2026-05-05 16:08 | 47.12399 | 28.00610 | 21995 ft | 404 kts | 288° |
| 2026-05-05 16:09 | 47.13176 | 27.96633 | 22440 ft | 407 kts | 289° |
| 2026-05-05 16:09 | 47.13962 | 27.92629 | 22891 ft | 409 kts | 289° |
| 2026-05-05 16:09 | 47.14742 | 27.88656 | 23330 ft | 412 kts | 288° |
| 2026-05-05 16:09 | 47.15533 | 27.84606 | 23742 ft | 413 kts | 288° |
| 2026-05-05 16:10 | 47.16334 | 27.80478 | 24125 ft | 415 kts | 288° |
| 2026-05-05 16:10 | 47.17111 | 27.76439 | 24495 ft | 417 kts | 288° |